sensor_id;sensor_type;location;lat;lon;timestamp;pressure;altitude;pressure_sealevel;temperature;humidity
60583;BME280;46415;47.536;19.066;2024-03-02T00:01:46;-18477.41;;;9.12;100.00
60583;BME280;46415;47.536;19.066;2024-03-02T00:04:49;-18478.22;;;9.15;100.00
60583;BME280;46415;47.536;19.066;2024-03-02T00:07:56;-18479.03;;;9.18;100.00
60583;BME280;46415;47.536;19.066;2024-03-02T00:11:01;-18480.41;;;9.23;100.00
60583;BME280;46415;47.536;19.066;2024-03-02T00:14:07;-18481.09;;;9.26;100.00
60583;BME280;46415;47.536;19.066;2024-03-02T00:17:20;-18479.88;;;9.21;100.00
60583;BME280;46415;47.536;19.066;2024-03-02T00:20:24;-18479.88;;;9.21;100.00
60583;BME280;46415;47.536;19.066;2024-03-02T00:23:30;-18477.94;;;9.14;100.00
60583;BME280;46415;47.536;19.066;2024-03-02T00:26:34;-18475.50;;;9.05;100.00
60583;BME280;46415;47.536;19.066;2024-03-02T00:29:37;-18471.91;;;8.92;100.00
60583;BME280;46415;47.536;19.066;2024-03-02T00:32:42;-18470.41;;;8.86;100.00
60583;BME280;46415;47.536;19.066;2024-03-02T00:35:45;-18470.00;;;8.85;100.00
60583;BME280;46415;47.536;19.066;2024-03-02T00:38:50;-18468.50;;;8.79;100.00
60583;BME280;46415;47.536;19.066;2024-03-02T00:41:53;-18467.94;;;8.77;100.00
60583;BME280;46415;47.536;19.066;2024-03-02T00:44:56;-18468.50;;;8.79;100.00
60583;BME280;46415;47.536;19.066;2024-03-02T00:47:59;-18469.59;;;8.83;100.00
60583;BME280;46415;47.536;19.066;2024-03-02T00:51:03;-18470.41;;;8.86;100.00
60583;BME280;46415;47.536;19.066;2024-03-02T00:54:09;-18469.87;;;8.84;100.00
60583;BME280;46415;47.536;19.066;2024-03-02T00:57:11;-18469.44;;;8.83;100.00
60583;BME280;46415;47.536;19.066;2024-03-02T01:00:15;-18468.63;;;8.80;100.00
60583;BME280;46415;47.536;19.066;2024-03-02T01:03:20;-18468.50;;;8.79;100.00
60583;BME280;46415;47.536;19.066;2024-03-02T01:06:23;-18470.69;;;8.87;100.00
60583;BME280;46415;47.536;19.066;2024-03-02T01:09:26;-18473.16;;;8.96;100.00
60583;BME280;46415;47.536;19.066;2024-03-02T01:12:29;-18475.50;;;9.05;100.00
60583;BME280;46415;47.536;19.066;2024-03-02T01:15:33;-18477.69;;;9.13;100.00
60583;BME280;46415;47.536;19.066;2024-03-02T01:18:36;-18477.41;;;9.12;100.00
60583;BME280;46415;47.536;19.066;2024-03-02T01:21:39;-18478.91;;;9.18;100.00
60583;BME280;46415;47.536;19.066;2024-03-02T01:24:42;-18477.00;;;9.11;100.00
60583;BME280;46415;47.536;19.066;2024-03-02T01:27:45;-18477.41;;;9.12;100.00
60583;BME280;46415;47.536;19.066;2024-03-02T01:30:52;-18478.09;;;9.15;100.00
60583;BME280;46415;47.536;19.066;2024-03-02T01:33:55;-18479.72;;;9.21;100.00
60583;BME280;46415;47.536;19.066;2024-03-02T01:36:58;-18479.88;;;9.21;100.00
60583;BME280;46415;47.536;19.066;2024-03-02T01:40:01;-18476.72;;;9.10;100.00
60583;BME280;46415;47.536;19.066;2024-03-02T01:43:06;-18476.72;;;9.10;100.00
60583;BME280;46415;47.536;19.066;2024-03-02T01:46:09;-18476.84;;;9.10;100.00
60583;BME280;46415;47.536;19.066;2024-03-02T01:49:13;-18475.06;;;9.04;100.00
60583;BME280;46415;47.536;19.066;2024-03-02T01:52:15;-18473.97;;;8.99;100.00
60583;BME280;46415;47.536;19.066;2024-03-02T01:55:18;-18474.25;;;9.00;100.00
60583;BME280;46415;47.536;19.066;2024-03-02T01:58:21;-18475.34;;;9.05;100.00
60583;BME280;46415;47.536;19.066;2024-03-02T02:01:24;-18476.16;;;9.08;100.00
60583;BME280;46415;47.536;19.066;2024-03-02T02:04:27;-18474.94;;;9.03;100.00
60583;BME280;46415;47.536;19.066;2024-03-02T02:07:30;-18474.66;;;9.02;100.00
60583;BME280;46415;47.536;19.066;2024-03-02T02:10:34;-18474.25;;;9.00;100.00
60583;BME280;46415;47.536;19.066;2024-03-02T02:13:37;-18473.97;;;8.99;100.00
60583;BME280;46415;47.536;19.066;2024-03-02T02:16:40;-18474.66;;;9.02;100.00
60583;BME280;46415;47.536;19.066;2024-03-02T02:19:43;-18473.84;;;8.99;100.00
60583;BME280;46415;47.536;19.066;2024-03-02T02:22:57;-18474.25;;;9.00;100.00
60583;BME280;46415;47.536;19.066;2024-03-02T02:26:00;-18474.94;;;9.03;100.00
60583;BME280;46415;47.536;19.066;2024-03-02T02:29:05;-18475.22;;;9.04;100.00
60583;BME280;46415;47.536;19.066;2024-03-02T02:32:08;-18474.53;;;9.01;100.00
60583;BME280;46415;47.536;19.066;2024-03-02T02:35:11;-18476.59;;;9.09;100.00
60583;BME280;46415;47.536;19.066;2024-03-02T02:38:15;-18476.72;;;9.10;100.00
60583;BME280;46415;47.536;19.066;2024-03-02T02:41:18;-18476.03;;;9.07;100.00
60583;BME280;46415;47.536;19.066;2024-03-02T02:44:21;-18475.50;;;9.05;100.00
60583;BME280;46415;47.536;19.066;2024-03-02T02:47:25;-18474.94;;;9.03;100.00
60583;BME280;46415;47.536;19.066;2024-03-02T02:50:28;-18473.97;;;8.99;100.00
60583;BME280;46415;47.536;19.066;2024-03-02T02:53:31;-18474.09;;;9.00;100.00
60583;BME280;46415;47.536;19.066;2024-03-02T02:56:34;-18475.75;;;9.06;100.00
60583;BME280;46415;47.536;19.066;2024-03-02T02:59:37;-18474.53;;;9.01;100.00
60583;BME280;46415;47.536;19.066;2024-03-02T03:02:41;-18473.00;;;8.96;100.00
60583;BME280;46415;47.536;19.066;2024-03-02T03:05:44;-18472.34;;;8.93;100.00
60583;BME280;46415;47.536;19.066;2024-03-02T03:08:47;-18471.22;;;8.89;100.00
60583;BME280;46415;47.536;19.066;2024-03-02T03:11:50;-18471.66;;;8.91;100.00
60583;BME280;46415;47.536;19.066;2024-03-02T03:14:53;-18470.28;;;8.86;100.00
60583;BME280;46415;47.536;19.066;2024-03-02T03:17:56;-18469.72;;;8.84;100.00
60583;BME280;46415;47.536;19.066;2024-03-02T03:21:00;-18468.34;;;8.79;100.00
60583;BME280;46415;47.536;19.066;2024-03-02T03:24:03;-18469.44;;;8.83;100.00
60583;BME280;46415;47.536;19.066;2024-03-02T03:27:06;-18468.91;;;8.81;100.00
60583;BME280;46415;47.536;19.066;2024-03-02T03:30:10;-18467.81;;;8.77;100.00
60583;BME280;46415;47.536;19.066;2024-03-02T03:33:13;-18468.34;;;8.79;100.00
60583;BME280;46415;47.536;19.066;2024-03-02T03:36:16;-18469.19;;;8.82;100.00
60583;BME280;46415;47.536;19.066;2024-03-02T03:39:19;-18469.87;;;8.84;100.00
60583;BME280;46415;47.536;19.066;2024-03-02T03:42:22;-18472.06;;;8.92;100.00
60583;BME280;46415;47.536;19.066;2024-03-02T03:45:25;-18470.00;;;8.85;100.00
60583;BME280;46415;47.536;19.066;2024-03-02T03:48:29;-18470.28;;;8.86;100.00
60583;BME280;46415;47.536;19.066;2024-03-02T03:51:33;-18469.87;;;8.84;100.00
60583;BME280;46415;47.536;19.066;2024-03-02T03:54:36;-18468.91;;;8.81;100.00
60583;BME280;46415;47.536;19.066;2024-03-02T03:57:40;-18467.66;;;8.76;100.00
60583;BME280;46415;47.536;19.066;2024-03-02T04:00:44;-18467.53;;;8.76;100.00
60583;BME280;46415;47.536;19.066;2024-03-02T04:03:47;-18466.44;;;8.72;100.00
60583;BME280;46415;47.536;19.066;2024-03-02T04:06:49;-18465.63;;;8.69;100.00
60583;BME280;46415;47.536;19.066;2024-03-02T04:09:53;-18465.88;;;8.70;100.00
60583;BME280;46415;47.536;19.066;2024-03-02T04:12:56;-18463.97;;;8.63;100.00
60583;BME280;46415;47.536;19.066;2024-03-02T04:15:59;-18461.91;;;8.55;100.00
60583;BME280;46415;47.536;19.066;2024-03-02T04:19:01;-18461.50;;;8.53;100.00
60583;BME280;46415;47.536;19.066;2024-03-02T04:22:04;-18460.94;;;8.51;100.00
60583;BME280;46415;47.536;19.066;2024-03-02T04:25:19;-18462.47;;;8.57;100.00
60583;BME280;46415;47.536;19.066;2024-03-02T04:28:22;-18463.84;;;8.62;100.00
60583;BME280;46415;47.536;19.066;2024-03-02T04:31:25;-18462.31;;;8.56;100.00
60583;BME280;46415;47.536;19.066;2024-03-02T04:34:28;-18461.91;;;8.55;100.00
60583;BME280;46415;47.536;19.066;2024-03-02T04:37:33;-18460.41;;;8.49;100.00
60583;BME280;46415;47.536;19.066;2024-03-02T04:40:37;-18461.09;;;8.52;100.00
60583;BME280;46415;47.536;19.066;2024-03-02T04:43:39;-18462.31;;;8.56;100.00
60583;BME280;46415;47.536;19.066;2024-03-02T04:46:42;-18461.62;;;8.54;100.00
60583;BME280;46415;47.536;19.066;2024-03-02T04:49:45;-18459.84;;;8.47;100.00
60583;BME280;46415;47.536;19.066;2024-03-02T04:52:49;-18459.44;;;8.46;100.00
60583;BME280;46415;47.536;19.066;2024-03-02T04:55:51;-18459.31;;;8.45;100.00
60583;BME280;46415;47.536;19.066;2024-03-02T04:59:26;-18459.56;;;8.46;100.00
60583;BME280;46415;47.536;19.066;2024-03-02T05:02:29;-18459.31;;;8.45;100.00
60583;BME280;46415;47.536;19.066;2024-03-02T05:05:31;-18459.84;;;8.47;100.00
60583;BME280;46415;47.536;19.066;2024-03-02T05:08:34;-18460.94;;;8.51;100.00
60583;BME280;46415;47.536;19.066;2024-03-02T05:11:37;-18460.13;;;8.48;100.00
60583;BME280;46415;47.536;19.066;2024-03-02T05:14:40;-18461.09;;;8.52;100.00
60583;BME280;46415;47.536;19.066;2024-03-02T05:17:43;-18460.69;;;8.50;100.00
60583;BME280;46415;47.536;19.066;2024-03-02T05:20:46;-18459.84;;;8.47;100.00
60583;BME280;46415;47.536;19.066;2024-03-02T05:23:49;-18460.53;;;8.50;100.00
60583;BME280;46415;47.536;19.066;2024-03-02T05:26:51;-18459.72;;;8.47;100.00
60583;BME280;46415;47.536;19.066;2024-03-02T05:29:55;-18459.44;;;8.46;100.00
60583;BME280;46415;47.536;19.066;2024-03-02T05:32:57;-18460.13;;;8.48;100.00
60583;BME280;46415;47.536;19.066;2024-03-02T05:36:01;-18460.81;;;8.51;100.00
60583;BME280;46415;47.536;19.066;2024-03-02T05:39:05;-18461.62;;;8.54;100.00
60583;BME280;46415;47.536;19.066;2024-03-02T05:42:11;-18460.13;;;8.48;100.00
60583;BME280;46415;47.536;19.066;2024-03-02T05:45:14;-18459.72;;;8.47;100.00
60583;BME280;46415;47.536;19.066;2024-03-02T05:48:19;-18460.94;;;8.51;100.00
60583;BME280;46415;47.536;19.066;2024-03-02T05:51:21;-18461.50;;;8.53;100.00
60583;BME280;46415;47.536;19.066;2024-03-02T05:54:25;-18461.91;;;8.55;100.00
60583;BME280;46415;47.536;19.066;2024-03-02T05:57:27;-18461.22;;;8.52;100.00
60583;BME280;46415;47.536;19.066;2024-03-02T06:00:52;-18461.50;;;8.53;100.00
60583;BME280;46415;47.536;19.066;2024-03-02T06:03:56;-18462.31;;;8.56;100.00
60583;BME280;46415;47.536;19.066;2024-03-02T06:06:59;-18461.62;;;8.54;100.00
60583;BME280;46415;47.536;19.066;2024-03-02T06:10:02;-18462.47;;;8.57;100.00
60583;BME280;46415;47.536;19.066;2024-03-02T06:13:05;-18463.28;;;8.60;100.00
60583;BME280;46415;47.536;19.066;2024-03-02T06:16:08;-18463.56;;;8.61;100.00
60583;BME280;46415;47.536;19.066;2024-03-02T06:19:11;-18465.19;;;8.67;100.00
60583;BME280;46415;47.536;19.066;2024-03-02T06:22:14;-18465.47;;;8.68;100.00
60583;BME280;46415;47.536;19.066;2024-03-02T06:25:17;-18467.66;;;8.76;100.00
60583;BME280;46415;47.536;19.066;2024-03-02T06:28:20;-18467.94;;;8.77;100.00
60583;BME280;46415;47.536;19.066;2024-03-02T06:31:23;-18467.41;;;8.75;100.00
60583;BME280;46415;47.536;19.066;2024-03-02T06:34:26;-18467.81;;;8.77;100.00
60583;BME280;46415;47.536;19.066;2024-03-02T06:37:29;-18466.44;;;8.72;100.00
60583;BME280;46415;47.536;19.066;2024-03-02T06:40:32;-18466.28;;;8.71;100.00
60583;BME280;46415;47.536;19.066;2024-03-02T06:43:35;-18468.50;;;8.79;100.00
60583;BME280;46415;47.536;19.066;2024-03-02T06:46:41;-18470.41;;;8.86;100.00
60583;BME280;46415;47.536;19.066;2024-03-02T06:49:43;-18471.78;;;8.91;100.00
60583;BME280;46415;47.536;19.066;2024-03-02T06:52:47;-18474.38;;;9.01;100.00
60583;BME280;46415;47.536;19.066;2024-03-02T06:55:49;-18474.38;;;9.01;100.00
60583;BME280;46415;47.536;19.066;2024-03-02T06:58:52;-18473.28;;;8.97;100.00
60583;BME280;46415;47.536;19.066;2024-03-02T07:01:55;-18475.34;;;9.05;100.00
60583;BME280;46415;47.536;19.066;2024-03-02T07:04:58;-18474.66;;;9.02;100.00
60583;BME280;46415;47.536;19.066;2024-03-02T07:08:01;-18475.34;;;9.05;100.00
60583;BME280;46415;47.536;19.066;2024-03-02T07:11:05;-18476.03;;;9.07;100.00
60583;BME280;46415;47.536;19.066;2024-03-02T07:14:08;-18475.06;;;9.04;100.00
60583;BME280;46415;47.536;19.066;2024-03-02T07:17:11;-18477.25;;;9.12;100.00
60583;BME280;46415;47.536;19.066;2024-03-02T07:20:13;-18477.41;;;9.12;100.00
60583;BME280;46415;47.536;19.066;2024-03-02T07:23:16;-18476.44;;;9.09;100.00
60583;BME280;46415;47.536;19.066;2024-03-02T07:26:19;-18477.94;;;9.14;100.00
60583;BME280;46415;47.536;19.066;2024-03-02T07:29:25;-18478.22;;;9.15;100.00
60583;BME280;46415;47.536;19.066;2024-03-02T07:32:28;-18479.59;;;9.20;100.00
60583;BME280;46415;47.536;19.066;2024-03-02T07:35:31;-18479.59;;;9.20;100.00
60583;BME280;46415;47.536;19.066;2024-03-02T07:38:34;-18479.72;;;9.21;100.00
60583;BME280;46415;47.536;19.066;2024-03-02T07:41:38;-18479.72;;;9.21;100.00
60583;BME280;46415;47.536;19.066;2024-03-02T07:44:41;-18481.66;;;9.28;100.00
60583;BME280;46415;47.536;19.066;2024-03-02T07:47:44;-18480.16;;;9.22;100.00
60583;BME280;46415;47.536;19.066;2024-03-02T07:50:47;-18476.84;;;9.10;100.00
60583;BME280;46415;47.536;19.066;2024-03-02T07:53:50;-18478.22;;;9.15;100.00
60583;BME280;46415;47.536;19.066;2024-03-02T07:56:52;-18478.09;;;9.15;100.00
60583;BME280;46415;47.536;19.066;2024-03-02T07:59:55;-18477.13;;;9.11;100.00
60583;BME280;46415;47.536;19.066;2024-03-02T08:02:58;-18479.03;;;9.18;100.00
60583;BME280;46415;47.536;19.066;2024-03-02T08:06:03;-18479.31;;;9.19;100.00
60583;BME280;46415;47.536;19.066;2024-03-02T08:09:06;-18480.69;;;9.24;100.00
60583;BME280;46415;47.536;19.066;2024-03-02T08:12:12;-18479.88;;;9.21;100.00
60583;BME280;46415;47.536;19.066;2024-03-02T08:15:15;-18480.00;;;9.22;100.00
60583;BME280;46415;47.536;19.066;2024-03-02T08:18:18;-18480.69;;;9.24;100.00
60583;BME280;46415;47.536;19.066;2024-03-02T08:21:21;-18482.88;;;9.32;100.00
60583;BME280;46415;47.536;19.066;2024-03-02T08:24:24;-18483.03;;;9.33;100.00
60583;BME280;46415;47.536;19.066;2024-03-02T08:27:27;-18483.72;;;9.35;100.00
60583;BME280;46415;47.536;19.066;2024-03-02T08:30:30;-18482.63;;;9.31;100.00
60583;BME280;46415;47.536;19.066;2024-03-02T08:33:33;-18482.63;;;9.31;100.00
60583;BME280;46415;47.536;19.066;2024-03-02T08:36:40;-18483.03;;;9.33;100.00
60583;BME280;46415;47.536;19.066;2024-03-02T08:39:45;-18483.28;;;9.34;100.00
60583;BME280;46415;47.536;19.066;2024-03-02T08:42:47;-18483.44;;;9.34;100.00
60583;BME280;46415;47.536;19.066;2024-03-02T08:45:50;-18483.97;;;9.36;100.00
60583;BME280;46415;47.536;19.066;2024-03-02T08:48:53;-18482.63;;;9.31;100.00
60583;BME280;46415;47.536;19.066;2024-03-02T08:51:56;-18482.19;;;9.30;100.00
60583;BME280;46415;47.536;19.066;2024-03-02T08:54:59;-18483.56;;;9.35;100.00
60583;BME280;46415;47.536;19.066;2024-03-02T08:58:02;-18484.81;;;9.39;100.00
60583;BME280;46415;47.536;19.066;2024-03-02T09:01:06;-18484.94;;;9.40;100.00
60583;BME280;46415;47.536;19.066;2024-03-02T09:04:10;-18486.44;;;9.46;100.00
60583;BME280;46415;47.536;19.066;2024-03-02T09:07:13;-18488.78;;;9.54;100.00
60583;BME280;46415;47.536;19.066;2024-03-02T09:10:16;-18492.47;;;9.68;100.00
60583;BME280;46415;47.536;19.066;2024-03-02T09:13:19;-18493.31;;;9.71;100.00
60583;BME280;46415;47.536;19.066;2024-03-02T09:16:22;-18495.22;;;9.78;100.00
60583;BME280;46415;47.536;19.066;2024-03-02T09:19:25;-18496.59;;;9.83;100.00
60583;BME280;46415;47.536;19.066;2024-03-02T09:22:27;-18496.44;;;9.82;100.00
60583;BME280;46415;47.536;19.066;2024-03-02T09:25:30;-18495.50;;;9.79;100.00
60583;BME280;46415;47.536;19.066;2024-03-02T09:28:33;-18495.50;;;9.79;100.00
60583;BME280;46415;47.536;19.066;2024-03-02T09:31:43;-18494.94;;;9.77;100.00
60583;BME280;46415;47.536;19.066;2024-03-02T09:34:46;-18492.19;;;9.67;100.00
60583;BME280;46415;47.536;19.066;2024-03-02T09:37:51;-18493.16;;;9.70;100.00
60583;BME280;46415;47.536;19.066;2024-03-02T09:40:54;-18492.75;;;9.69;100.00
60583;BME280;46415;47.536;19.066;2024-03-02T09:43:57;-18492.34;;;9.67;100.00
60583;BME280;46415;47.536;19.066;2024-03-02T09:47:00;-18489.19;;;9.56;100.00
60583;BME280;46415;47.536;19.066;2024-03-02T09:50:03;-18490.84;;;9.62;100.00
60583;BME280;46415;47.536;19.066;2024-03-02T09:53:07;-18491.09;;;9.63;100.00
60583;BME280;46415;47.536;19.066;2024-03-02T09:56:11;-18492.34;;;9.67;100.00
60583;BME280;46415;47.536;19.066;2024-03-02T09:59:13;-18491.53;;;9.64;100.00
60583;BME280;46415;47.536;19.066;2024-03-02T10:02:20;-18490.16;;;9.59;100.00
60583;BME280;46415;47.536;19.066;2024-03-02T10:05:27;-18491.53;;;9.64;100.00
60583;BME280;46415;47.536;19.066;2024-03-02T10:08:43;-18489.06;;;9.55;100.00
60583;BME280;46415;47.536;19.066;2024-03-02T10:11:46;-18490.69;;;9.61;100.00
60583;BME280;46415;47.536;19.066;2024-03-02T10:15:02;-18489.31;;;9.56;100.00
60583;BME280;46415;47.536;19.066;2024-03-02T10:18:10;-18487.69;;;9.50;100.00
60583;BME280;46415;47.536;19.066;2024-03-02T10:21:14;-18487.13;;;9.48;100.00
60583;BME280;46415;47.536;19.066;2024-03-02T10:24:18;-18487.28;;;9.49;100.00
60583;BME280;46415;47.536;19.066;2024-03-02T10:27:27;-18489.19;;;9.56;100.00
60583;BME280;46415;47.536;19.066;2024-03-02T10:30:30;-18491.66;;;9.65;100.00
60583;BME280;46415;47.536;19.066;2024-03-02T10:33:33;-18492.19;;;9.67;100.00
60583;BME280;46415;47.536;19.066;2024-03-02T10:36:37;-18492.75;;;9.69;100.00
60583;BME280;46415;47.536;19.066;2024-03-02T10:39:40;-18490.84;;;9.62;100.00
60583;BME280;46415;47.536;19.066;2024-03-02T10:42:45;-18490.41;;;9.60;100.00
60583;BME280;46415;47.536;19.066;2024-03-02T10:45:49;-18488.50;;;9.53;100.00
60583;BME280;46415;47.536;19.066;2024-03-02T10:48:53;-18491.09;;;9.63;100.00
60583;BME280;46415;47.536;19.066;2024-03-02T10:51:57;-18490.00;;;9.59;100.00
60583;BME280;46415;47.536;19.066;2024-03-02T10:55:00;-18493.31;;;9.71;100.00
60583;BME280;46415;47.536;19.066;2024-03-02T10:58:04;-18494.66;;;9.76;100.00
60583;BME280;46415;47.536;19.066;2024-03-02T11:01:11;-18496.31;;;9.82;100.00
60583;BME280;46415;47.536;19.066;2024-03-02T11:04:17;-18501.53;;;10.01;100.00
60583;BME280;46415;47.536;19.066;2024-03-02T11:07:22;-18504.25;;;10.11;100.00
60583;BME280;46415;47.536;19.066;2024-03-02T11:10:26;-18507.00;;;10.21;100.00
60583;BME280;46415;47.536;19.066;2024-03-02T11:13:32;-18507.00;;;10.21;100.00
60583;BME280;46415;47.536;19.066;2024-03-02T11:16:42;-18508.38;;;10.27;100.00
60583;BME280;46415;47.536;19.066;2024-03-02T11:19:46;-18509.19;;;10.30;100.00
60583;BME280;46415;47.536;19.066;2024-03-02T11:22:50;-18507.97;;;10.25;100.00
60583;BME280;46415;47.536;19.066;2024-03-02T11:25:53;-18509.47;;;10.31;100.00
60583;BME280;46415;47.536;19.066;2024-03-02T11:28:56;-18514.53;;;10.49;100.00
60583;BME280;46415;47.536;19.066;2024-03-02T11:32:00;-18515.34;;;10.52;100.00
60583;BME280;46415;47.536;19.066;2024-03-02T11:35:03;-18518.66;;;10.64;100.00
60583;BME280;46415;47.536;19.066;2024-03-02T11:38:07;-18516.31;;;10.56;100.00
60583;BME280;46415;47.536;19.066;2024-03-02T11:41:10;-18514.53;;;10.49;100.00
60583;BME280;46415;47.536;19.066;2024-03-02T11:44:14;-18511.38;;;10.38;100.00
60583;BME280;46415;47.536;19.066;2024-03-02T11:47:18;-18513.84;;;10.47;100.00
60583;BME280;46415;47.536;19.066;2024-03-02T11:50:33;-18517.41;;;10.60;100.00
60583;BME280;46415;47.536;19.066;2024-03-02T11:53:38;-18515.09;;;10.51;100.00
60583;BME280;46415;47.536;19.066;2024-03-02T11:56:42;-18513.44;;;10.45;100.00
60583;BME280;46415;47.536;19.066;2024-03-02T11:59:45;-18514.13;;;10.48;100.00
60583;BME280;46415;47.536;19.066;2024-03-02T12:03:06;-18511.66;;;10.39;100.00
60583;BME280;46415;47.536;19.066;2024-03-02T12:06:09;-18509.47;;;10.31;100.00
60583;BME280;46415;47.536;19.066;2024-03-02T12:09:12;-18510.56;;;10.35;100.00
60583;BME280;46415;47.536;19.066;2024-03-02T12:12:17;-18509.19;;;10.30;100.00
60583;BME280;46415;47.536;19.066;2024-03-02T12:15:29;-18508.09;;;10.26;100.00
60583;BME280;46415;47.536;19.066;2024-03-02T12:18:33;-18509.06;;;10.29;100.00
60583;BME280;46415;47.536;19.066;2024-03-02T12:21:36;-18508.09;;;10.26;100.00
60583;BME280;46415;47.536;19.066;2024-03-02T12:24:41;-18504.94;;;10.14;100.00
60583;BME280;46415;47.536;19.066;2024-03-02T12:27:45;-18503.97;;;10.10;100.00
60583;BME280;46415;47.536;19.066;2024-03-02T12:30:49;-18503.72;;;10.09;100.00
60583;BME280;46415;47.536;19.066;2024-03-02T12:33:53;-18502.62;;;10.05;100.00
60583;BME280;46415;47.536;19.066;2024-03-02T12:36:57;-18501.94;;;10.03;100.00
60583;BME280;46415;47.536;19.066;2024-03-02T12:40:01;-18502.34;;;10.04;100.00
60583;BME280;46415;47.536;19.066;2024-03-02T12:43:05;-18502.19;;;10.04;100.00
60583;BME280;46415;47.536;19.066;2024-03-02T12:46:09;-18501.53;;;10.01;100.00
60583;BME280;46415;47.536;19.066;2024-03-02T12:49:14;-18500.56;;;9.98;100.00
60583;BME280;46415;47.536;19.066;2024-03-02T12:52:18;-18498.09;;;9.89;100.00
60583;BME280;46415;47.536;19.066;2024-03-02T12:55:23;-18496.44;;;9.82;100.00
60583;BME280;46415;47.536;19.066;2024-03-02T12:58:26;-18496.31;;;9.82;100.00
60583;BME280;46415;47.536;19.066;2024-03-02T13:01:30;-18499.19;;;9.93;100.00
60583;BME280;46415;47.536;19.066;2024-03-02T13:04:34;-18497.97;;;9.88;100.00
60583;BME280;46415;47.536;19.066;2024-03-02T13:07:38;-18497.13;;;9.85;100.00
60583;BME280;46415;47.536;19.066;2024-03-02T13:10:41;-18497.69;;;9.87;100.00
60583;BME280;46415;47.536;19.066;2024-03-02T13:13:44;-18497.00;;;9.84;100.00
60583;BME280;46415;47.536;19.066;2024-03-02T13:16:47;-18496.44;;;9.82;100.00
60583;BME280;46415;47.536;19.066;2024-03-02T13:20:00;-18493.84;;;9.73;100.00
60583;BME280;46415;47.536;19.066;2024-03-02T13:23:03;-18490.56;;;9.61;100.00
60583;BME280;46415;47.536;19.066;2024-03-02T13:26:06;-18489.47;;;9.57;100.00
60583;BME280;46415;47.536;19.066;2024-03-02T13:29:10;-18487.53;;;9.50;100.00
60583;BME280;46415;47.536;19.066;2024-03-02T13:32:14;-18487.00;;;9.48;100.00
60583;BME280;46415;47.536;19.066;2024-03-02T13:35:16;-18487.81;;;9.51;100.00
60583;BME280;46415;47.536;19.066;2024-03-02T13:38:20;-18491.25;;;9.63;100.00
60583;BME280;46415;47.536;19.066;2024-03-02T13:41:23;-18491.78;;;9.65;100.00
60583;BME280;46415;47.536;19.066;2024-03-02T13:44:26;-18491.09;;;9.63;100.00
60583;BME280;46415;47.536;19.066;2024-03-02T13:47:29;-18491.38;;;9.64;100.00
60583;BME280;46415;47.536;19.066;2024-03-02T13:50:32;-18489.31;;;9.56;100.00
60583;BME280;46415;47.536;19.066;2024-03-02T13:53:35;-18490.28;;;9.60;100.00
60583;BME280;46415;47.536;19.066;2024-03-02T13:56:38;-18488.78;;;9.54;100.00
60583;BME280;46415;47.536;19.066;2024-03-02T13:59:42;-18489.19;;;9.56;100.00
60583;BME280;46415;47.536;19.066;2024-03-02T14:02:46;-18488.91;;;9.55;100.00
60583;BME280;46415;47.536;19.066;2024-03-02T14:05:52;-18488.38;;;9.53;100.00
60583;BME280;46415;47.536;19.066;2024-03-02T14:08:55;-18490.56;;;9.61;100.00
60583;BME280;46415;47.536;19.066;2024-03-02T14:11:58;-18490.16;;;9.59;100.00
60583;BME280;46415;47.536;19.066;2024-03-02T14:15:03;-18490.16;;;9.59;100.00
60583;BME280;46415;47.536;19.066;2024-03-02T14:18:06;-18490.97;;;9.62;100.00
60583;BME280;46415;47.536;19.066;2024-03-02T14:21:12;-18490.56;;;9.61;100.00
60583;BME280;46415;47.536;19.066;2024-03-02T14:24:15;-18491.94;;;9.66;100.00
60583;BME280;46415;47.536;19.066;2024-03-02T14:27:18;-18492.63;;;9.68;100.00
60583;BME280;46415;47.536;19.066;2024-03-02T14:30:40;-18493.56;;;9.72;100.00
60583;BME280;46415;47.536;19.066;2024-03-02T14:33:42;-18494.25;;;9.74;100.00
60583;BME280;46415;47.536;19.066;2024-03-02T14:36:45;-18493.44;;;9.71;100.00
60583;BME280;46415;47.536;19.066;2024-03-02T14:39:48;-18494.13;;;9.74;100.00
60583;BME280;46415;47.536;19.066;2024-03-02T14:42:52;-18493.84;;;9.73;100.00
60583;BME280;46415;47.536;19.066;2024-03-02T14:45:55;-18491.53;;;9.64;100.00
60583;BME280;46415;47.536;19.066;2024-03-02T14:48:59;-18491.38;;;9.64;100.00
60583;BME280;46415;47.536;19.066;2024-03-02T14:52:02;-18488.63;;;9.54;100.00
60583;BME280;46415;47.536;19.066;2024-03-02T14:55:06;-18488.38;;;9.53;100.00
60583;BME280;46415;47.536;19.066;2024-03-02T14:58:10;-18489.47;;;9.57;100.00
60583;BME280;46415;47.536;19.066;2024-03-02T15:01:13;-18490.84;;;9.62;100.00
60583;BME280;46415;47.536;19.066;2024-03-02T15:04:16;-18491.09;;;9.63;100.00
60583;BME280;46415;47.536;19.066;2024-03-02T15:07:23;-18490.41;;;9.60;100.00
60583;BME280;46415;47.536;19.066;2024-03-02T15:10:26;-18491.38;;;9.64;100.00
60583;BME280;46415;47.536;19.066;2024-03-02T15:13:30;-18491.38;;;9.64;100.00
60583;BME280;46415;47.536;19.066;2024-03-02T15:16:33;-18491.38;;;9.64;100.00
60583;BME280;46415;47.536;19.066;2024-03-02T15:19:36;-18492.63;;;9.68;100.00
60583;BME280;46415;47.536;19.066;2024-03-02T15:22:38;-18491.66;;;9.65;100.00
60583;BME280;46415;47.536;19.066;2024-03-02T15:25:41;-18492.75;;;9.69;100.00
60583;BME280;46415;47.536;19.066;2024-03-02T15:28:44;-18492.75;;;9.69;100.00
60583;BME280;46415;47.536;19.066;2024-03-02T15:31:47;-18493.03;;;9.70;100.00
60583;BME280;46415;47.536;19.066;2024-03-02T15:34:50;-18491.53;;;9.64;100.00
60583;BME280;46415;47.536;19.066;2024-03-02T15:37:54;-18489.88;;;9.58;100.00
60583;BME280;46415;47.536;19.066;2024-03-02T15:40:57;-18490.41;;;9.60;100.00
60583;BME280;46415;47.536;19.066;2024-03-02T15:44:00;-18490.56;;;9.61;100.00
60583;BME280;46415;47.536;19.066;2024-03-02T15:47:03;-18492.19;;;9.67;100.00